sensor_id;sensor_type;location;lat;lon;timestamp;P1;durP1;ratioP1;P2;durP2;ratioP2
26484;SDS011;18083;50.560;7.262;2022-08-18T00:02:04;14.10;;;12.70;;
26484;SDS011;18083;50.560;7.262;2022-08-18T00:04:31;14.80;;;13.30;;
26484;SDS011;18083;50.560;7.262;2022-08-18T00:06:58;15.18;;;13.28;;
26484;SDS011;18083;50.560;7.262;2022-08-18T00:09:25;14.00;;;12.58;;
26484;SDS011;18083;50.560;7.262;2022-08-18T00:11:53;15.03;;;13.32;;
26484;SDS011;18083;50.560;7.262;2022-08-18T00:14:20;15.30;;;13.18;;
26484;SDS011;18083;50.560;7.262;2022-08-18T00:16:48;14.23;;;12.80;;
26484;SDS011;18083;50.560;7.262;2022-08-18T00:19:16;17.12;;;12.85;;
26484;SDS011;18083;50.560;7.262;2022-08-18T00:21:43;15.45;;;13.88;;
26484;SDS011;18083;50.560;7.262;2022-08-18T00:24:11;14.35;;;12.53;;
26484;SDS011;18083;50.560;7.262;2022-08-18T00:26:38;15.38;;;13.78;;
26484;SDS011;18083;50.560;7.262;2022-08-18T00:29:05;16.45;;;13.48;;
26484;SDS011;18083;50.560;7.262;2022-08-18T00:31:32;16.95;;;13.72;;
26484;SDS011;18083;50.560;7.262;2022-08-18T00:34:00;15.50;;;13.53;;
26484;SDS011;18083;50.560;7.262;2022-08-18T00:36:27;14.50;;;13.10;;
26484;SDS011;18083;50.560;7.262;2022-08-18T00:38:56;15.05;;;13.53;;
26484;SDS011;18083;50.560;7.262;2022-08-18T00:41:24;14.60;;;12.82;;
26484;SDS011;18083;50.560;7.262;2022-08-18T00:43:52;16.48;;;13.43;;
26484;SDS011;18083;50.560;7.262;2022-08-18T00:46:22;15.43;;;13.83;;
26484;SDS011;18083;50.560;7.262;2022-08-18T00:48:49;15.68;;;13.90;;
26484;SDS011;18083;50.560;7.262;2022-08-18T00:53:47;15.95;;;13.13;;
26484;SDS011;18083;50.560;7.262;2022-08-18T00:56:17;13.58;;;12.25;;
26484;SDS011;18083;50.560;7.262;2022-08-18T01:01:20;15.13;;;13.62;;
26484;SDS011;18083;50.560;7.262;2022-08-18T01:03:48;14.65;;;12.98;;
26484;SDS011;18083;50.560;7.262;2022-08-18T01:06:22;14.63;;;13.10;;
26484;SDS011;18083;50.560;7.262;2022-08-18T01:08:50;14.85;;;13.45;;
26484;SDS011;18083;50.560;7.262;2022-08-18T01:11:17;13.60;;;11.57;;
26484;SDS011;18083;50.560;7.262;2022-08-18T01:13:44;14.53;;;13.08;;
26484;SDS011;18083;50.560;7.262;2022-08-18T01:16:12;15.08;;;13.48;;
26484;SDS011;18083;50.560;7.262;2022-08-18T01:18:57;13.60;;;12.15;;
26484;SDS011;18083;50.560;7.262;2022-08-18T01:21:46;14.98;;;13.38;;
26484;SDS011;18083;50.560;7.262;2022-08-18T01:24:18;18.42;;;15.00;;
26484;SDS011;18083;50.560;7.262;2022-08-18T01:26:45;15.63;;;13.08;;
26484;SDS011;18083;50.560;7.262;2022-08-18T01:29:16;16.70;;;14.13;;
26484;SDS011;18083;50.560;7.262;2022-08-18T01:31:46;14.55;;;13.13;;
26484;SDS011;18083;50.560;7.262;2022-08-18T01:34:12;16.73;;;13.45;;
26484;SDS011;18083;50.560;7.262;2022-08-18T01:36:39;13.98;;;12.53;;
26484;SDS011;18083;50.560;7.262;2022-08-18T01:39:09;14.87;;;13.28;;
26484;SDS011;18083;50.560;7.262;2022-08-18T01:41:37;15.93;;;12.93;;
26484;SDS011;18083;50.560;7.262;2022-08-18T01:44:04;15.00;;;13.25;;
26484;SDS011;18083;50.560;7.262;2022-08-18T01:46:34;15.72;;;14.13;;
26484;SDS011;18083;50.560;7.262;2022-08-18T01:49:01;17.52;;;13.20;;
26484;SDS011;18083;50.560;7.262;2022-08-18T01:51:29;17.40;;;14.47;;
26484;SDS011;18083;50.560;7.262;2022-08-18T01:53:57;15.55;;;13.38;;
26484;SDS011;18083;50.560;7.262;2022-08-18T01:56:25;15.35;;;13.80;;
26484;SDS011;18083;50.560;7.262;2022-08-18T01:58:53;14.47;;;12.95;;
26484;SDS011;18083;50.560;7.262;2022-08-18T02:01:21;14.00;;;12.50;;
26484;SDS011;18083;50.560;7.262;2022-08-18T02:03:50;13.95;;;12.55;;
26484;SDS011;18083;50.560;7.262;2022-08-18T02:06:17;19.40;;;15.20;;
26484;SDS011;18083;50.560;7.262;2022-08-18T02:08:45;15.32;;;12.73;;
26484;SDS011;18083;50.560;7.262;2022-08-18T02:11:13;14.25;;;12.37;;
26484;SDS011;18083;50.560;7.262;2022-08-18T02:13:40;15.93;;;11.93;;
26484;SDS011;18083;50.560;7.262;2022-08-18T02:16:08;15.03;;;12.70;;
26484;SDS011;18083;50.560;7.262;2022-08-18T02:18:36;16.70;;;13.55;;
26484;SDS011;18083;50.560;7.262;2022-08-18T02:21:08;13.70;;;12.30;;
26484;SDS011;18083;50.560;7.262;2022-08-18T02:23:35;14.25;;;12.75;;
26484;SDS011;18083;50.560;7.262;2022-08-18T02:26:04;17.40;;;14.05;;
26484;SDS011;18083;50.560;7.262;2022-08-18T02:28:31;13.72;;;12.28;;
26484;SDS011;18083;50.560;7.262;2022-08-18T02:33:33;15.28;;;12.23;;
26484;SDS011;18083;50.560;7.262;2022-08-18T02:36:01;16.90;;;13.03;;
26484;SDS011;18083;50.560;7.262;2022-08-18T02:38:28;13.22;;;11.60;;
26484;SDS011;18083;50.560;7.262;2022-08-18T02:40:56;14.45;;;12.65;;
26484;SDS011;18083;50.560;7.262;2022-08-18T02:43:25;15.45;;;12.73;;
26484;SDS011;18083;50.560;7.262;2022-08-18T02:45:53;17.98;;;12.47;;
26484;SDS011;18083;50.560;7.262;2022-08-18T02:48:21;17.25;;;12.73;;
26484;SDS011;18083;50.560;7.262;2022-08-18T02:51:12;15.15;;;12.33;;
26484;SDS011;18083;50.560;7.262;2022-08-18T02:53:35;17.50;;;13.05;;
26484;SDS011;18083;50.560;7.262;2022-08-18T02:56:04;16.02;;;13.38;;
26484;SDS011;18083;50.560;7.262;2022-08-18T02:58:33;15.32;;;13.72;;
26484;SDS011;18083;50.560;7.262;2022-08-18T03:01:00;16.35;;;13.85;;
26484;SDS011;18083;50.560;7.262;2022-08-18T03:03:28;16.62;;;12.90;;
26484;SDS011;18083;50.560;7.262;2022-08-18T03:05:56;18.15;;;13.95;;
26484;SDS011;18083;50.560;7.262;2022-08-18T03:08:23;22.30;;;14.07;;
26484;SDS011;18083;50.560;7.262;2022-08-18T03:10:51;17.17;;;14.23;;
26484;SDS011;18083;50.560;7.262;2022-08-18T03:13:19;15.95;;;12.75;;
26484;SDS011;18083;50.560;7.262;2022-08-18T03:15:46;15.32;;;13.60;;
26484;SDS011;18083;50.560;7.262;2022-08-18T03:18:14;13.15;;;11.45;;
26484;SDS011;18083;50.560;7.262;2022-08-18T03:20:42;15.70;;;12.60;;
26484;SDS011;18083;50.560;7.262;2022-08-18T03:23:11;14.93;;;13.32;;
26484;SDS011;18083;50.560;7.262;2022-08-18T03:25:47;15.30;;;13.68;;
26484;SDS011;18083;50.560;7.262;2022-08-18T03:28:15;14.75;;;13.25;;
26484;SDS011;18083;50.560;7.262;2022-08-18T03:30:43;15.93;;;13.03;;
26484;SDS011;18083;50.560;7.262;2022-08-18T03:33:10;15.03;;;12.73;;
26484;SDS011;18083;50.560;7.262;2022-08-18T03:35:37;18.57;;;13.43;;
26484;SDS011;18083;50.560;7.262;2022-08-18T03:38:06;17.23;;;12.98;;
26484;SDS011;18083;50.560;7.262;2022-08-18T03:40:34;15.95;;;14.30;;
26484;SDS011;18083;50.560;7.262;2022-08-18T03:43:03;19.40;;;15.98;;
26484;SDS011;18083;50.560;7.262;2022-08-18T03:45:33;20.82;;;15.50;;
26484;SDS011;18083;50.560;7.262;2022-08-18T03:48:01;18.45;;;14.45;;
26484;SDS011;18083;50.560;7.262;2022-08-18T03:50:28;18.92;;;14.18;;
26484;SDS011;18083;50.560;7.262;2022-08-18T03:52:57;16.65;;;13.90;;
26484;SDS011;18083;50.560;7.262;2022-08-18T03:55:25;20.92;;;15.63;;
26484;SDS011;18083;50.560;7.262;2022-08-18T03:57:58;21.65;;;13.70;;
26484;SDS011;18083;50.560;7.262;2022-08-18T04:00:28;21.20;;;15.38;;
26484;SDS011;18083;50.560;7.262;2022-08-18T04:02:57;20.80;;;13.75;;
26484;SDS011;18083;50.560;7.262;2022-08-18T04:05:27;24.67;;;14.70;;
26484;SDS011;18083;50.560;7.262;2022-08-18T04:07:55;22.55;;;15.75;;
26484;SDS011;18083;50.560;7.262;2022-08-18T04:10:23;20.10;;;15.03;;
26484;SDS011;18083;50.560;7.262;2022-08-18T04:12:50;20.20;;;14.38;;
26484;SDS011;18083;50.560;7.262;2022-08-18T04:15:18;18.12;;;14.15;;
26484;SDS011;18083;50.560;7.262;2022-08-18T04:17:45;17.87;;;13.40;;
26484;SDS011;18083;50.560;7.262;2022-08-18T04:20:13;22.55;;;14.95;;
26484;SDS011;18083;50.560;7.262;2022-08-18T04:22:41;15.98;;;13.78;;
26484;SDS011;18083;50.560;7.262;2022-08-18T04:25:10;17.35;;;12.93;;
26484;SDS011;18083;50.560;7.262;2022-08-18T04:27:38;21.87;;;14.18;;
26484;SDS011;18083;50.560;7.262;2022-08-18T04:30:08;21.80;;;14.07;;
26484;SDS011;18083;50.560;7.262;2022-08-18T04:32:36;18.17;;;13.88;;
26484;SDS011;18083;50.560;7.262;2022-08-18T04:35:04;24.63;;;16.02;;
26484;SDS011;18083;50.560;7.262;2022-08-18T04:37:32;18.73;;;13.28;;
26484;SDS011;18083;50.560;7.262;2022-08-18T04:39:59;25.50;;;15.10;;
26484;SDS011;18083;50.560;7.262;2022-08-18T04:42:26;24.25;;;15.30;;
26484;SDS011;18083;50.560;7.262;2022-08-18T04:44:54;21.60;;;15.70;;
26484;SDS011;18083;50.560;7.262;2022-08-18T04:47:21;26.82;;;14.70;;
26484;SDS011;18083;50.560;7.262;2022-08-18T04:49:48;26.25;;;14.38;;
26484;SDS011;18083;50.560;7.262;2022-08-18T04:52:16;26.50;;;16.93;;
26484;SDS011;18083;50.560;7.262;2022-08-18T04:55:01;20.27;;;15.85;;
26484;SDS011;18083;50.560;7.262;2022-08-18T04:57:29;22.30;;;16.00;;
26484;SDS011;18083;50.560;7.262;2022-08-18T04:59:58;21.12;;;16.30;;
26484;SDS011;18083;50.560;7.262;2022-08-18T05:02:25;25.72;;;16.95;;
26484;SDS011;18083;50.560;7.262;2022-08-18T05:04:53;25.00;;;18.73;;
26484;SDS011;18083;50.560;7.262;2022-08-18T05:07:20;24.18;;;17.67;;
26484;SDS011;18083;50.560;7.262;2022-08-18T05:09:48;21.62;;;17.62;;
26484;SDS011;18083;50.560;7.262;2022-08-18T05:12:17;23.02;;;16.73;;
26484;SDS011;18083;50.560;7.262;2022-08-18T05:14:45;19.10;;;16.17;;
26484;SDS011;18083;50.560;7.262;2022-08-18T05:17:13;25.82;;;16.15;;
26484;SDS011;18083;50.560;7.262;2022-08-18T05:19:41;24.37;;;15.60;;
26484;SDS011;18083;50.560;7.262;2022-08-18T05:22:09;22.05;;;16.73;;
26484;SDS011;18083;50.560;7.262;2022-08-18T05:24:38;23.07;;;17.07;;
26484;SDS011;18083;50.560;7.262;2022-08-18T05:27:06;19.07;;;16.70;;
26484;SDS011;18083;50.560;7.262;2022-08-18T05:29:33;22.30;;;16.77;;
26484;SDS011;18083;50.560;7.262;2022-08-18T05:32:02;18.30;;;16.12;;
26484;SDS011;18083;50.560;7.262;2022-08-18T05:34:32;21.37;;;17.15;;
26484;SDS011;18083;50.560;7.262;2022-08-18T05:37:01;22.70;;;16.57;;
26484;SDS011;18083;50.560;7.262;2022-08-18T05:42:14;23.32;;;17.17;;
26484;SDS011;18083;50.560;7.262;2022-08-18T05:44:44;26.60;;;17.12;;
26484;SDS011;18083;50.560;7.262;2022-08-18T05:49:44;23.85;;;18.73;;
26484;SDS011;18083;50.560;7.262;2022-08-18T05:52:15;24.37;;;18.80;;
26484;SDS011;18083;50.560;7.262;2022-08-18T05:54:49;24.95;;;20.20;;
26484;SDS011;18083;50.560;7.262;2022-08-18T05:57:35;25.68;;;20.57;;
26484;SDS011;18083;50.560;7.262;2022-08-18T06:00:02;26.05;;;19.77;;
26484;SDS011;18083;50.560;7.262;2022-08-18T06:02:39;31.48;;;20.85;;
26484;SDS011;18083;50.560;7.262;2022-08-18T06:05:05;28.90;;;20.72;;
26484;SDS011;18083;50.560;7.262;2022-08-18T06:07:35;25.90;;;19.30;;
26484;SDS011;18083;50.560;7.262;2022-08-18T06:10:03;23.07;;;18.42;;
26484;SDS011;18083;50.560;7.262;2022-08-18T06:12:41;25.85;;;18.85;;
26484;SDS011;18083;50.560;7.262;2022-08-18T06:15:24;24.02;;;18.90;;
26484;SDS011;18083;50.560;7.262;2022-08-18T06:17:59;22.90;;;18.92;;
26484;SDS011;18083;50.560;7.262;2022-08-18T06:20:25;28.83;;;20.10;;
26484;SDS011;18083;50.560;7.262;2022-08-18T06:25:26;23.47;;;19.27;;
26484;SDS011;18083;50.560;7.262;2022-08-18T06:27:54;28.45;;;21.87;;
26484;SDS011;18083;50.560;7.262;2022-08-18T06:30:27;25.75;;;20.00;;
26484;SDS011;18083;50.560;7.262;2022-08-18T06:33:04;24.30;;;19.85;;
26484;SDS011;18083;50.560;7.262;2022-08-18T06:35:31;25.80;;;21.00;;
26484;SDS011;18083;50.560;7.262;2022-08-18T06:38:08;27.10;;;21.68;;
26484;SDS011;18083;50.560;7.262;2022-08-18T06:41:15;29.12;;;19.85;;
26484;SDS011;18083;50.560;7.262;2022-08-18T06:43:21;28.17;;;20.23;;
26484;SDS011;18083;50.560;7.262;2022-08-18T06:45:49;34.20;;;22.10;;
26484;SDS011;18083;50.560;7.262;2022-08-18T06:48:23;32.50;;;20.72;;
26484;SDS011;18083;50.560;7.262;2022-08-18T06:50:55;30.35;;;21.62;;
26484;SDS011;18083;50.560;7.262;2022-08-18T06:53:18;29.57;;;20.92;;
26484;SDS011;18083;50.560;7.262;2022-08-18T06:55:46;30.32;;;20.23;;
26484;SDS011;18083;50.560;7.262;2022-08-18T07:03:19;30.45;;;20.32;;
26484;SDS011;18083;50.560;7.262;2022-08-18T07:06:00;24.72;;;20.20;;
26484;SDS011;18083;50.560;7.262;2022-08-18T07:08:32;27.85;;;20.62;;
26484;SDS011;18083;50.560;7.262;2022-08-18T07:13:46;28.20;;;21.07;;
26484;SDS011;18083;50.560;7.262;2022-08-18T07:16:20;34.48;;;23.77;;
26484;SDS011;18083;50.560;7.262;2022-08-18T07:18:45;36.63;;;26.30;;
26484;SDS011;18083;50.560;7.262;2022-08-18T07:21:23;38.05;;;28.25;;
26484;SDS011;18083;50.560;7.262;2022-08-18T07:24:05;49.00;;;33.73;;
26484;SDS011;18083;50.560;7.262;2022-08-18T07:29:17;57.33;;;38.98;;
26484;SDS011;18083;50.560;7.262;2022-08-18T07:31:48;60.80;;;39.48;;
26484;SDS011;18083;50.560;7.262;2022-08-18T07:34:24;57.00;;;36.48;;
26484;SDS011;18083;50.560;7.262;2022-08-18T07:36:52;60.83;;;38.85;;
26484;SDS011;18083;50.560;7.262;2022-08-18T07:42:41;59.42;;;36.35;;
26484;SDS011;18083;50.560;7.262;2022-08-18T07:44:31;58.17;;;36.08;;
26484;SDS011;18083;50.560;7.262;2022-08-18T07:46:57;60.25;;;36.75;;
26484;SDS011;18083;50.560;7.262;2022-08-18T07:49:26;57.00;;;35.83;;
26484;SDS011;18083;50.560;7.262;2022-08-18T07:52:01;53.45;;;35.45;;
26484;SDS011;18083;50.560;7.262;2022-08-18T07:57:20;50.20;;;32.67;;
26484;SDS011;18083;50.560;7.262;2022-08-18T07:59:49;49.45;;;32.75;;
26484;SDS011;18083;50.560;7.262;2022-08-18T08:04:58;50.65;;;32.90;;
26484;SDS011;18083;50.560;7.262;2022-08-18T08:07:23;48.10;;;31.77;;
26484;SDS011;18083;50.560;7.262;2022-08-18T08:12:32;48.68;;;29.60;;
26484;SDS011;18083;50.560;7.262;2022-08-18T08:15:10;47.93;;;29.87;;
26484;SDS011;18083;50.560;7.262;2022-08-18T08:17:41;49.23;;;30.68;;
26484;SDS011;18083;50.560;7.262;2022-08-18T08:23:04;54.73;;;31.30;;
26484;SDS011;18083;50.560;7.262;2022-08-18T08:30:26;58.38;;;31.85;;
26484;SDS011;18083;50.560;7.262;2022-08-18T08:35:43;58.35;;;33.85;;
26484;SDS011;18083;50.560;7.262;2022-08-18T08:38:11;53.30;;;32.95;;
26484;SDS011;18083;50.560;7.262;2022-08-18T08:40:46;49.83;;;30.05;;
26484;SDS011;18083;50.560;7.262;2022-08-18T08:43:20;49.20;;;30.65;;
26484;SDS011;18083;50.560;7.262;2022-08-18T08:45:56;50.25;;;30.08;;
26484;SDS011;18083;50.560;7.262;2022-08-18T08:48:24;50.08;;;31.17;;
26484;SDS011;18083;50.560;7.262;2022-08-18T08:50:54;47.73;;;31.12;;
26484;SDS011;18083;50.560;7.262;2022-08-18T08:55:51;47.20;;;28.40;;
26484;SDS011;18083;50.560;7.262;2022-08-18T08:58:20;56.85;;;32.10;;
26484;SDS011;18083;50.560;7.262;2022-08-18T09:00:48;51.60;;;30.80;;
26484;SDS011;18083;50.560;7.262;2022-08-18T09:03:36;53.33;;;31.05;;
26484;SDS011;18083;50.560;7.262;2022-08-18T09:08:59;46.25;;;28.32;;
26484;SDS011;18083;50.560;7.262;2022-08-18T09:11:24;48.52;;;30.30;;
26484;SDS011;18083;50.560;7.262;2022-08-18T09:16:36;45.67;;;29.07;;
26484;SDS011;18083;50.560;7.262;2022-08-18T09:21:52;53.58;;;31.93;;
26484;SDS011;18083;50.560;7.262;2022-08-18T09:24:23;52.80;;;30.85;;
26484;SDS011;18083;50.560;7.262;2022-08-18T09:26:52;53.95;;;34.27;;
26484;SDS011;18083;50.560;7.262;2022-08-18T09:29:21;55.85;;;32.50;;
26484;SDS011;18083;50.560;7.262;2022-08-18T09:34:30;58.63;;;35.60;;
26484;SDS011;18083;50.560;7.262;2022-08-18T09:39:28;59.42;;;35.60;;
26484;SDS011;18083;50.560;7.262;2022-08-18T09:42:16;64.17;;;36.98;;
26484;SDS011;18083;50.560;7.262;2022-08-18T09:49:51;58.33;;;32.78;;
26484;SDS011;18083;50.560;7.262;2022-08-18T09:54:59;65.92;;;38.25;;
26484;SDS011;18083;50.560;7.262;2022-08-18T09:57:30;57.80;;;34.73;;
26484;SDS011;18083;50.560;7.262;2022-08-18T10:18:38;53.92;;;32.50;;
26484;SDS011;18083;50.560;7.262;2022-08-18T10:21:08;59.88;;;33.67;;
26484;SDS011;18083;50.560;7.262;2022-08-18T10:23:59;55.55;;;32.42;;
26484;SDS011;18083;50.560;7.262;2022-08-18T10:26:04;51.80;;;32.40;;
26484;SDS011;18083;50.560;7.262;2022-08-18T10:28:51;55.05;;;33.58;;
26484;SDS011;18083;50.560;7.262;2022-08-18T10:31:19;55.17;;;35.35;;
26484;SDS011;18083;50.560;7.262;2022-08-18T10:39:10;55.03;;;35.25;;
26484;SDS011;18083;50.560;7.262;2022-08-18T10:41:44;57.60;;;33.33;;
26484;SDS011;18083;50.560;7.262;2022-08-18T10:44:07;56.98;;;35.78;;
26484;SDS011;18083;50.560;7.262;2022-08-18T10:46:39;64.97;;;36.90;;
26484;SDS011;18083;50.560;7.262;2022-08-18T10:49:16;62.13;;;36.53;;
26484;SDS011;18083;50.560;7.262;2022-08-18T10:56:48;61.58;;;37.05;;
26484;SDS011;18083;50.560;7.262;2022-08-18T11:02:00;58.73;;;35.28;;
26484;SDS011;18083;50.560;7.262;2022-08-18T11:04:40;61.00;;;35.43;;
26484;SDS011;18083;50.560;7.262;2022-08-18T11:07:07;56.58;;;34.33;;
26484;SDS011;18083;50.560;7.262;2022-08-18T11:09:34;58.08;;;35.73;;
26484;SDS011;18083;50.560;7.262;2022-08-18T11:12:02;64.60;;;36.85;;
26484;SDS011;18083;50.560;7.262;2022-08-18T11:14:37;64.67;;;38.40;;
26484;SDS011;18083;50.560;7.262;2022-08-18T11:19:39;60.10;;;36.95;;
26484;SDS011;18083;50.560;7.262;2022-08-18T11:22:31;58.02;;;35.05;;
26484;SDS011;18083;50.560;7.262;2022-08-18T11:24:54;53.48;;;33.65;;
26484;SDS011;18083;50.560;7.262;2022-08-18T11:27:22;52.90;;;33.15;;
26484;SDS011;18083;50.560;7.262;2022-08-18T11:29:50;51.13;;;33.23;;
26484;SDS011;18083;50.560;7.262;2022-08-18T11:32:29;53.78;;;33.70;;
26484;SDS011;18083;50.560;7.262;2022-08-18T11:35:05;56.70;;;36.68;;
26484;SDS011;18083;50.560;7.262;2022-08-18T11:37:34;56.33;;;36.17;;
26484;SDS011;18083;50.560;7.262;2022-08-18T11:40:00;54.10;;;33.65;;
26484;SDS011;18083;50.560;7.262;2022-08-18T11:42:29;48.63;;;31.62;;
26484;SDS011;18083;50.560;7.262;2022-08-18T11:45:03;47.00;;;31.48;;
26484;SDS011;18083;50.560;7.262;2022-08-18T11:47:30;47.58;;;33.35;;
26484;SDS011;18083;50.560;7.262;2022-08-18T11:50:05;51.55;;;32.48;;
26484;SDS011;18083;50.560;7.262;2022-08-18T11:52:27;46.42;;;31.62;;
26484;SDS011;18083;50.560;7.262;2022-08-18T11:55:04;45.12;;;32.00;;
26484;SDS011;18083;50.560;7.262;2022-08-18T11:57:41;49.08;;;31.90;;
26484;SDS011;18083;50.560;7.262;2022-08-18T12:03:02;46.10;;;31.52;;
26484;SDS011;18083;50.560;7.262;2022-08-18T12:05:39;41.75;;;30.45;;
26484;SDS011;18083;50.560;7.262;2022-08-18T12:07:58;43.45;;;30.10;;
26484;SDS011;18083;50.560;7.262;2022-08-18T12:10:26;47.67;;;32.53;;
26484;SDS011;18083;50.560;7.262;2022-08-18T12:12:54;45.12;;;31.27;;
26484;SDS011;18083;50.560;7.262;2022-08-18T12:15:25;44.40;;;30.45;;
26484;SDS011;18083;50.560;7.262;2022-08-18T12:17:52;43.87;;;30.27;;
26484;SDS011;18083;50.560;7.262;2022-08-18T12:20:20;43.75;;;30.50;;
26484;SDS011;18083;50.560;7.262;2022-08-18T12:22:47;42.50;;;28.30;;
26484;SDS011;18083;50.560;7.262;2022-08-18T12:25:16;41.80;;;29.85;;
26484;SDS011;18083;50.560;7.262;2022-08-18T12:27:44;36.40;;;28.73;;
26484;SDS011;18083;50.560;7.262;2022-08-18T12:30:11;44.03;;;29.50;;
26484;SDS011;18083;50.560;7.262;2022-08-18T12:32:39;40.75;;;30.20;;
26484;SDS011;18083;50.560;7.262;2022-08-18T12:35:07;40.75;;;30.62;;
26484;SDS011;18083;50.560;7.262;2022-08-18T12:37:36;39.13;;;30.75;;
26484;SDS011;18083;50.560;7.262;2022-08-18T12:40:04;40.12;;;30.52;;
26484;SDS011;18083;50.560;7.262;2022-08-18T12:42:31;35.80;;;28.65;;
26484;SDS011;18083;50.560;7.262;2022-08-18T12:44:59;35.83;;;27.87;;
26484;SDS011;18083;50.560;7.262;2022-08-18T12:47:27;36.28;;;28.45;;
26484;SDS011;18083;50.560;7.262;2022-08-18T12:49:54;33.42;;;27.90;;
26484;SDS011;18083;50.560;7.262;2022-08-18T12:52:22;38.48;;;27.87;;
26484;SDS011;18083;50.560;7.262;2022-08-18T12:54:50;29.48;;;24.70;;
26484;SDS011;18083;50.560;7.262;2022-08-18T12:57:24;32.80;;;26.62;;
26484;SDS011;18083;50.560;7.262;2022-08-18T12:59:49;34.03;;;26.30;;
26484;SDS011;18083;50.560;7.262;2022-08-18T13:02:16;38.67;;;30.37;;
26484;SDS011;18083;50.560;7.262;2022-08-18T13:04:44;32.08;;;27.25;;
26484;SDS011;18083;50.560;7.262;2022-08-18T13:07:11;32.63;;;27.02;;
26484;SDS011;18083;50.560;7.262;2022-08-18T13:09:40;34.55;;;26.35;;
26484;SDS011;18083;50.560;7.262;2022-08-18T13:12:07;32.75;;;27.17;;
26484;SDS011;18083;50.560;7.262;2022-08-18T13:14:35;30.60;;;26.35;;
26484;SDS011;18083;50.560;7.262;2022-08-18T13:17:03;31.23;;;25.90;;
26484;SDS011;18083;50.560;7.262;2022-08-18T13:19:30;28.07;;;25.08;;
26484;SDS011;18083;50.560;7.262;2022-08-18T13:21:58;35.20;;;29.20;;
26484;SDS011;18083;50.560;7.262;2022-08-18T13:24:25;29.87;;;26.40;;
26484;SDS011;18083;50.560;7.262;2022-08-18T13:26:53;31.30;;;26.20;;
26484;SDS011;18083;50.560;7.262;2022-08-18T13:29:21;29.32;;;24.87;;
26484;SDS011;18083;50.560;7.262;2022-08-18T13:31:49;28.62;;;25.55;;
26484;SDS011;18083;50.560;7.262;2022-08-18T13:34:18;25.15;;;22.37;;
26484;SDS011;18083;50.560;7.262;2022-08-18T13:36:46;27.25;;;24.10;;
26484;SDS011;18083;50.560;7.262;2022-08-18T13:39:14;31.65;;;25.35;;
26484;SDS011;18083;50.560;7.262;2022-08-18T13:41:42;28.95;;;24.52;;
26484;SDS011;18083;50.560;7.262;2022-08-18T13:44:10;28.02;;;24.27;;
26484;SDS011;18083;50.560;7.262;2022-08-18T13:46:38;31.68;;;26.73;;
26484;SDS011;18083;50.560;7.262;2022-08-18T13:49:07;27.75;;;24.80;;
26484;SDS011;18083;50.560;7.262;2022-08-18T13:51:35;26.48;;;23.67;;
26484;SDS011;18083;50.560;7.262;2022-08-18T13:54:02;30.02;;;25.95;;
26484;SDS011;18083;50.560;7.262;2022-08-18T13:56:29;27.95;;;24.60;;
26484;SDS011;18083;50.560;7.262;2022-08-18T13:58:57;24.18;;;21.62;;
26484;SDS011;18083;50.560;7.262;2022-08-18T14:01:24;27.65;;;24.92;;
26484;SDS011;18083;50.560;7.262;2022-08-18T14:03:51;26.37;;;23.62;;
26484;SDS011;18083;50.560;7.262;2022-08-18T14:06:19;25.08;;;22.48;;
26484;SDS011;18083;50.560;7.262;2022-08-18T14:08:47;28.38;;;25.57;;
26484;SDS011;18083;50.560;7.262;2022-08-18T14:11:14;27.25;;;23.47;;
26484;SDS011;18083;50.560;7.262;2022-08-18T14:13:43;25.62;;;23.22;;
26484;SDS011;18083;50.560;7.262;2022-08-18T14:16:12;24.18;;;21.27;;
26484;SDS011;18083;50.560;7.262;2022-08-18T14:18:39;23.12;;;20.72;;
26484;SDS011;18083;50.560;7.262;2022-08-18T14:21:06;21.60;;;19.20;;
26484;SDS011;18083;50.560;7.262;2022-08-18T14:23:52;22.75;;;20.45;;
26484;SDS011;18083;50.560;7.262;2022-08-18T14:26:37;21.48;;;19.17;;
26484;SDS011;18083;50.560;7.262;2022-08-18T14:29:14;22.35;;;19.70;;
26484;SDS011;18083;50.560;7.262;2022-08-18T14:31:41;22.80;;;20.52;;
26484;SDS011;18083;50.560;7.262;2022-08-18T14:34:09;21.65;;;19.48;;
26484;SDS011;18083;50.560;7.262;2022-08-18T14:36:36;24.18;;;21.77;;
26484;SDS011;18083;50.560;7.262;2022-08-18T14:39:04;24.82;;;22.32;;
26484;SDS011;18083;50.560;7.262;2022-08-18T14:41:31;24.87;;;22.32;;
26484;SDS011;18083;50.560;7.262;2022-08-18T14:43:59;25.05;;;21.73;;
26484;SDS011;18083;50.560;7.262;2022-08-18T14:46:26;23.52;;;21.23;;
26484;SDS011;18083;50.560;7.262;2022-08-18T14:48:53;25.37;;;21.85;;
26484;SDS011;18083;50.560;7.262;2022-08-18T14:51:21;23.47;;;20.95;;
26484;SDS011;18083;50.560;7.262;2022-08-18T14:53:48;26.50;;;20.97;;
26484;SDS011;18083;50.560;7.262;2022-08-18T14:56:15;21.37;;;17.17;;
26484;SDS011;18083;50.560;7.262;2022-08-18T14:58:43;21.37;;;19.15;;
26484;SDS011;18083;50.560;7.262;2022-08-18T15:01:10;23.90;;;21.35;;
26484;SDS011;18083;50.560;7.262;2022-08-18T15:03:38;19.32;;;17.27;;
26484;SDS011;18083;50.560;7.262;2022-08-18T15:06:06;21.20;;;18.15;;
26484;SDS011;18083;50.560;7.262;2022-08-18T15:08:34;21.62;;;19.37;;
26484;SDS011;18083;50.560;7.262;2022-08-18T15:11:03;21.20;;;19.10;;
26484;SDS011;18083;50.560;7.262;2022-08-18T15:13:31;22.48;;;20.27;;
26484;SDS011;18083;50.560;7.262;2022-08-18T15:16:00;21.27;;;19.17;;
26484;SDS011;18083;50.560;7.262;2022-08-18T15:18:27;21.37;;;19.07;;
26484;SDS011;18083;50.560;7.262;2022-08-18T15:20:54;20.20;;;18.02;;
26484;SDS011;18083;50.560;7.262;2022-08-18T15:23:40;22.45;;;17.82;;
26484;SDS011;18083;50.560;7.262;2022-08-18T15:26:25;21.93;;;19.25;;
26484;SDS011;18083;50.560;7.262;2022-08-18T15:28:53;22.02;;;19.60;;
26484;SDS011;18083;50.560;7.262;2022-08-18T15:31:20;26.12;;;20.62;;
26484;SDS011;18083;50.560;7.262;2022-08-18T15:33:47;24.72;;;20.10;;
26484;SDS011;18083;50.560;7.262;2022-08-18T15:36:15;23.25;;;20.82;;
26484;SDS011;18083;50.560;7.262;2022-08-18T15:38:44;22.32;;;19.45;;
26484;SDS011;18083;50.560;7.262;2022-08-18T15:41:12;23.87;;;21.17;;
26484;SDS011;18083;50.560;7.262;2022-08-18T15:43:40;25.72;;;19.92;;
26484;SDS011;18083;50.560;7.262;2022-08-18T15:46:09;24.50;;;21.90;;
26484;SDS011;18083;50.560;7.262;2022-08-18T15:48:36;24.87;;;22.22;;
26484;SDS011;18083;50.560;7.262;2022-08-18T15:51:03;25.82;;;20.70;;
26484;SDS011;18083;50.560;7.262;2022-08-18T15:53:31;23.20;;;20.92;;
26484;SDS011;18083;50.560;7.262;2022-08-18T15:55:58;25.85;;;22.50;;
26484;SDS011;18083;50.560;7.262;2022-08-18T15:58:25;25.40;;;22.75;;
26484;SDS011;18083;50.560;7.262;2022-08-18T16:00:52;25.23;;;22.55;;
26484;SDS011;18083;50.560;7.262;2022-08-18T16:03:20;24.85;;;22.27;;
26484;SDS011;18083;50.560;7.262;2022-08-18T16:05:53;23.90;;;20.82;;
26484;SDS011;18083;50.560;7.262;2022-08-18T16:08:19;23.45;;;20.90;;
26484;SDS011;18083;50.560;7.262;2022-08-18T16:10:47;21.75;;;19.60;;
26484;SDS011;18083;50.560;7.262;2022-08-18T16:13:14;24.10;;;21.62;;
26484;SDS011;18083;50.560;7.262;2022-08-18T16:15:43;21.62;;;19.37;;
26484;SDS011;18083;50.560;7.262;2022-08-18T16:18:12;21.15;;;19.10;;
26484;SDS011;18083;50.560;7.262;2022-08-18T16:20:40;22.67;;;20.37;;
26484;SDS011;18083;50.560;7.262;2022-08-18T16:23:09;20.72;;;18.75;;